Time;durP1;ratioP1;P1;durP2;ratioP2;P2;SDS_P1;SDS_P2;PMS_P1;PMS_P2;Temp;Humidity;BMP_temperature;BMP_pressure;BME280_temperature;BME280_humidity;BME280_pressure;Samples;Min_cycle;Max_cycle;Signal;HPM_P1;HPM_P2
2023/10/22 00:03:51;;;;;;;3.70;1.00;;;;;;;;;;8279211;28;20044;-74
2023/10/22 00:07:51;;;;;;;3.40;0.98;;;;;;;;;;8285238;28;20169;-73
2023/10/22 00:11:51;;;;;;;3.03;0.93;;;;;;;;;;8281961;28;22775;-73
2023/10/22 00:15:51;;;;;;;4.65;0.90;;;;;;;;;;8285817;28;21076;-73
2023/10/22 00:19:51;;;;;;;2.28;0.95;;;;;;;;;;8282673;28;20183;-73
2023/10/22 00:23:52;;;;;;;2.88;1.10;;;;;;;;;;8284433;28;20060;-73
2023/10/22 00:27:52;;;;;;;4.15;1.42;;;;;;;;;;8281958;28;20021;-73
2023/10/22 00:31:52;;;;;;;3.50;1.00;;;;;;;;;;8265572;28;21022;-72
2023/10/22 00:35:56;;;;;;;2.60;0.90;;;;;;;;;;8281781;28;20025;-74
2023/10/22 00:39:56;;;;;;;2.55;0.90;;;;;;;;;;8283719;28;20163;-73
2023/10/22 00:43:56;;;;;;;7.05;1.23;;;;;;;;;;8284463;28;20056;-73
2023/10/22 00:47:56;;;;;;;6.07;0.98;;;;;;;;;;8268175;28;20033;-73
2023/10/22 00:51:57;;;;;;;3.60;1.02;;;;;;;;;;8282372;28;20889;-73
2023/10/22 00:55:57;;;;;;;3.65;1.30;;;;;;;;;;8283540;28;20033;-72
2023/10/22 00:59:58;;;;;;;4.47;1.17;;;;;;;;;;8280706;28;20040;-73
2023/10/22 01:03:58;;;;;;;1.58;0.80;;;;;;;;;;8281405;28;20049;-73
2023/10/22 01:07:58;;;;;;;2.60;0.90;;;;;;;;;;8268132;28;20028;-73
2023/10/22 01:12:02;;;;;;;4.13;0.90;;;;;;;;;;8281604;28;20103;-73
2023/10/22 01:16:02;;;;;;;;;;;;;;;;;;8280552;28;20080;-73
2023/10/22 01:20:03;;;;;;;2.75;0.95;;;;;;;;;;8281850;28;20468;-73
2023/10/22 01:24:05;;;;;;;4.60;1.10;;;;;;;;;;8273467;28;20041;-73
2023/10/22 01:28:06;;;;;;;3.13;1.00;;;;;;;;;;8265142;28;20025;-73
2023/10/22 01:32:06;;;;;;;2.58;0.75;;;;;;;;;;8279214;28;20045;-73
2023/10/22 01:36:06;;;;;;;2.80;0.80;;;;;;;;;;8279631;28;20112;-73
2023/10/22 01:40:07;;;;;;;3.30;1.10;;;;;;;;;;8282648;28;20132;-73
2023/10/22 01:44:07;;;;;;;2.63;0.80;;;;;;;;;;8282845;28;20022;-74
2023/10/22 01:48:08;;;;;;;6.00;1.13;;;;;;;;;;8281704;28;20057;-73
2023/10/22 01:52:08;;;;;;;7.13;1.20;;;;;;;;;;8280795;28;20083;-73
2023/10/22 01:56:09;;;;;;;4.07;1.00;;;;;;;;;;8263936;28;20083;-73
2023/10/22 02:00:10;;;;;;;5.53;0.95;;;;;;;;;;8278931;28;20052;-74
2023/10/22 02:04:11;;;;;;;6.07;1.38;;;;;;;;;;8282442;28;20891;-72
2023/10/22 02:08:11;;;;;;;5.13;1.13;;;;;;;;;;8282748;28;20025;-73
2023/10/22 02:12:11;;;;;;;6.55;1.13;;;;;;;;;;8279090;28;20029;-72
2023/10/22 02:16:11;;;;;;;4.65;1.08;;;;;;;;;;8279315;28;20042;-73
2023/10/22 02:20:12;;;;;;;3.70;1.05;;;;;;;;;;8281808;28;20037;-73
2023/10/22 02:24:13;;;;;;;3.15;1.10;;;;;;;;;;8279477;28;20100;-73
2023/10/22 02:28:13;;;;;;;3.80;1.30;;;;;;;;;;8263140;28;20057;-73
2023/10/22 02:32:13;;;;;;;3.55;1.08;;;;;;;;;;8281885;28;20632;-74
2023/10/22 02:36:14;;;;;;;3.28;1.05;;;;;;;;;;8280320;28;21128;-73
2023/10/22 02:40:14;;;;;;;4.20;1.30;;;;;;;;;;8279907;28;20112;-72
2023/10/22 02:44:14;;;;;;;5.70;0.80;;;;;;;;;;8278772;28;20608;-73
2023/10/22 02:48:15;;;;;;;3.92;1.08;;;;;;;;;;8280334;28;20029;-73
2023/10/22 02:52:15;;;;;;;4.22;1.10;;;;;;;;;;8278405;28;20736;-72
2023/10/22 02:56:15;;;;;;;6.55;1.13;;;;;;;;;;8280755;28;20123;-73
2023/10/22 03:00:15;;;;;;;6.93;1.45;;;;;;;;;;8278748;28;20382;-73
2023/10/22 03:04:15;;;;;;;4.75;0.98;;;;;;;;;;8278772;28;20727;-73
2023/10/22 03:08:16;;;;;;;6.80;1.67;;;;;;;;;;8281948;28;20024;-73
2023/10/22 03:12:16;;;;;;;4.57;1.10;;;;;;;;;;8263817;28;20053;-73
2023/10/22 03:16:17;;;;;;;3.58;1.00;;;;;;;;;;8278968;28;20041;-73
2023/10/22 03:20:18;;;;;;;9.55;1.50;;;;;;;;;;8261649;28;20139;-72
2023/10/22 03:24:19;;;;;;;4.55;1.20;;;;;;;;;;8281511;28;20063;-73
2023/10/22 03:28:19;;;;;;;4.68;1.35;;;;;;;;;;8269772;28;20056;-73
2023/10/22 03:32:19;;;;;;;5.65;1.20;;;;;;;;;;8280547;28;20044;-73
2023/10/22 03:36:19;;;;;;;4.70;1.15;;;;;;;;;;8279722;28;20557;-73
2023/10/22 03:40:19;;;;;;;4.22;1.20;;;;;;;;;;8263574;28;20033;-73
2023/10/22 03:44:20;;;;;;;6.18;1.25;;;;;;;;;;8265517;28;20059;-73
2023/10/22 03:48:20;;;;;;;4.53;1.23;;;;;;;;;;8277485;28;20037;-73
2023/10/22 03:52:20;;;;;;;3.17;1.17;;;;;;;;;;8279914;28;20037;-72
2023/10/22 03:56:20;;;;;;;3.50;1.00;;;;;;;;;;8279660;28;20525;-73
2023/10/22 04:00:20;;;;;;;4.50;1.45;;;;;;;;;;8275287;28;20115;-74
2023/10/22 04:04:21;;;;;;;7.47;0.98;;;;;;;;;;8279715;28;20021;-73
2023/10/22 04:08:22;;;;;;;5.18;1.15;;;;;;;;;;8278489;28;20021;-73
2023/10/22 04:12:22;;;;;;;4.47;1.20;;;;;;;;;;8278231;28;20585;-73
2023/10/22 04:16:22;;;;;;;4.03;1.10;;;;;;;;;;8269757;28;20076;-73
2023/10/22 04:20:23;;;;;;;4.38;1.33;;;;;;;;;;8277210;28;20537;-73
2023/10/22 04:24:23;;;;;;;5.65;1.52;;;;;;;;;;8287945;28;20033;-73
2023/10/22 04:28:24;;;;;;;3.38;1.00;;;;;;;;;;8262623;28;20021;-74
2023/10/22 04:32:24;;;;;;;6.55;1.35;;;;;;;;;;8281085;28;20347;-73
2023/10/22 04:36:24;;;;;;;5.60;1.10;;;;;;;;;;8279520;28;20662;-73
2023/10/22 04:40:26;;;;;;;5.57;1.20;;;;;;;;;;8263272;28;20284;-73
2023/10/22 04:44:26;;;;;;;3.58;1.17;;;;;;;;;;8277321;28;20021;-73
2023/10/22 04:48:26;;;;;;;5.95;1.60;;;;;;;;;;8264631;28;20033;-73
2023/10/22 04:52:34;;;;;;;6.43;1.42;;;;;;;;;;8284847;28;20020;-73
2023/10/22 04:56:35;;;;;;;6.40;1.52;;;;;;;;;;8287661;28;20029;-73
2023/10/22 05:00:35;;;;;;;4.07;1.30;;;;;;;;;;8289047;28;20042;-74
2023/10/22 05:04:35;;;;;;;4.47;1.60;;;;;;;;;;8287838;28;20029;-73
2023/10/22 05:08:36;;;;;;;6.03;1.40;;;;;;;;;;8285003;28;20506;-73
2023/10/22 05:12:36;;;;;;;6.93;1.50;;;;;;;;;;8285209;28;20020;-73
2023/10/22 05:16:36;;;;;;;7.50;1.50;;;;;;;;;;8287562;28;20041;-73
2023/10/22 05:20:36;;;;;;;5.35;1.30;;;;;;;;;;8286942;28;20561;-72
2023/10/22 05:24:36;;;;;;;4.35;1.40;;;;;;;;;;8286448;28;20013;-73
2023/10/22 05:28:37;;;;;;;5.72;1.63;;;;;;;;;;8290751;28;20094;-73
2023/10/22 05:32:37;;;;;;;4.00;1.30;;;;;;;;;;8288379;28;20036;-73
2023/10/22 05:36:37;;;;;;;6.15;1.42;;;;;;;;;;8286831;28;20021;-73
2023/10/22 05:40:37;;;;;;;8.32;1.55;;;;;;;;;;8273480;28;20021;-73
2023/10/22 05:44:38;;;;;;;10.20;1.60;;;;;;;;;;8288873;28;20076;-73
2023/10/22 05:48:38;;;;;;;6.90;1.48;;;;;;;;;;8287155;28;20155;-72
2023/10/22 05:52:38;;;;;;;5.33;1.00;;;;;;;;;;8294276;28;20033;-73
2023/10/22 05:56:38;;;;;;;6.80;1.50;;;;;;;;;;8292240;28;20272;-73
2023/10/22 06:00:38;;;;;;;8.68;1.33;;;;;;;;;;8275385;28;20040;-73
2023/10/22 06:04:39;;;;;;;7.90;1.50;;;;;;;;;;8288169;28;20667;-73
2023/10/22 06:08:39;;;;;;;9.45;1.50;;;;;;;;;;8288636;28;20021;-73
2023/10/22 06:12:39;;;;;;;7.47;1.58;;;;;;;;;;8273704;28;20333;-72
2023/10/22 06:16:39;;;;;;;8.98;1.88;;;;;;;;;;8282877;28;20124;-73
2023/10/22 06:20:40;;;;;;;7.20;1.48;;;;;;;;;;8282028;28;20025;-72
2023/10/22 06:24:40;;;;;;;9.13;2.00;;;;;;;;;;8272399;28;20107;-73
2023/10/22 06:28:41;;;;;;;5.95;1.25;;;;;;;;;;8281286;28;20080;-72
2023/10/22 06:32:41;;;;;;;10.77;1.67;;;;;;;;;;8271997;28;20037;-73
2023/10/22 06:36:41;;;;;;;9.73;1.80;;;;;;;;;;8283115;28;20032;-72
2023/10/22 06:40:41;;;;;;;6.50;1.40;;;;;;;;;;8267079;28;20099;-72
2023/10/22 06:44:43;;;;;;;10.63;1.65;;;;;;;;;;8282532;28;20048;-73
2023/10/22 06:48:44;;;;;;;6.30;1.58;;;;;;;;;;8278505;28;20039;-73
2023/10/22 06:52:44;;;;;;;6.47;1.27;;;;;;;;;;8264940;28;20022;-72
2023/10/22 06:56:44;;;;;;;7.18;1.35;;;;;;;;;;8280561;28;20029;-73
2023/10/22 07:00:44;;;;;;;5.97;1.35;;;;;;;;;;8276557;28;21095;-72
2023/10/22 07:04:47;;;;;;;5.22;1.45;;;;;;;;;;8279246;28;20130;-73
2023/10/22 07:08:48;;;;;;;8.10;1.50;;;;;;;;;;8283032;28;20025;-75
2023/10/22 07:12:48;;;;;;;6.10;1.20;;;;;;;;;;8278860;28;20104;-74
2023/10/22 07:16:48;;;;;;;6.60;1.70;;;;;;;;;;8279321;28;20065;-74
2023/10/22 07:20:49;;;;;;;4.68;1.40;;;;;;;;;;8282877;28;20476;-74
2023/10/22 07:24:49;;;;;;;5.22;1.40;;;;;;;;;;8265480;28;20111;-75
2023/10/22 07:28:50;;;;;;;4.75;1.35;;;;;;;;;;8288138;28;20164;-74
2023/10/22 07:32:51;;;;;;;5.40;1.63;;;;;;;;;;8268820;28;20060;-74
2023/10/22 07:36:52;;;;;;;9.07;1.77;;;;;;;;;;8280361;28;20035;-75
2023/10/22 07:40:55;;;;;;;5.10;1.38;;;;;;;;;;8284841;28;20036;-75
2023/10/22 07:44:56;;;;;;;6.25;1.27;;;;;;;;;;8284457;28;20654;-74
2023/10/22 07:48:56;;;;;;;8.48;1.50;;;;;;;;;;8281524;28;20095;-75
2023/10/22 07:52:56;;;;;;;6.32;1.48;;;;;;;;;;8281906;28;20124;-75
2023/10/22 07:56:57;;;;;;;4.45;1.38;;;;;;;;;;8269716;28;20022;-75
2023/10/22 08:00:58;;;;;;;6.97;1.40;;;;;;;;;;8279622;28;20893;-75
2023/10/22 08:04:58;;;;;;;10.18;1.92;;;;;;;;;;8279722;28;20033;-75
2023/10/22 08:08:58;;;;;;;5.50;1.27;;;;;;;;;;8283803;28;20053;-75
2023/10/22 08:12:58;;;;;;;9.88;1.73;;;;;;;;;;8267651;28;20383;-75
2023/10/22 08:16:59;;;;;;;9.13;1.60;;;;;;;;;;8277579;28;20300;-75
2023/10/22 08:21:00;;;;;;;6.50;1.60;;;;;;;;;;8284436;28;20029;-74
2023/10/22 08:25:01;;;;;;;8.20;1.48;;;;;;;;;;8275918;28;20120;-75
2023/10/22 08:29:01;;;;;;;8.75;1.60;;;;;;;;;;8288263;28;20064;-75
2023/10/22 08:33:01;;;;;;;8.57;1.73;;;;;;;;;;8286941;28;20041;-76
2023/10/22 08:37:03;;;;;;;8.85;1.70;;;;;;;;;;8272648;28;20026;-75
2023/10/22 08:41:06;;;;;;;9.90;1.88;;;;;;;;;;8283957;28;20082;-76
2023/10/22 08:45:09;;;;;;;7.47;1.73;;;;;;;;;;8285280;28;20059;-76
2023/10/22 08:49:10;;;;;;;8.10;1.70;;;;;;;;;;8272824;28;20864;-75
2023/10/22 08:53:11;;;;;;;9.77;1.85;;;;;;;;;;8286305;28;20142;-75
2023/10/22 08:57:11;;;;;;;5.40;1.95;;;;;;;;;;8288030;28;20888;-75
2023/10/22 09:01:12;;;;;;;10.23;2.20;;;;;;;;;;8287140;28;20120;-75
2023/10/22 09:05:12;;;;;;;5.28;1.48;;;;;;;;;;8286029;28;20437;-74
2023/10/22 09:09:31;;;;;;;7.75;1.55;;;;;;;;;;8287222;28;20086;-75
2023/10/22 09:13:31;;;;;;;8.40;1.48;;;;;;;;;;8284301;28;20833;-75
2023/10/22 09:17:31;;;;;;;5.20;1.50;;;;;;;;;;8285775;28;20175;-75
2023/10/22 09:21:41;;;;;;;5.40;1.42;;;;;;;;;;8284618;28;20744;-76
2023/10/22 09:25:42;;;;;;;8.40;1.80;;;;;;;;;;8290048;28;20773;-76
2023/10/22 09:29:47;;;;;;;7.30;1.60;;;;;;;;;;8286615;28;20029;-76
2023/10/22 09:33:47;;;;;;;7.18;1.40;;;;;;;;;;8285926;28;20114;-77
2023/10/22 09:37:49;;;;;;;7.85;1.38;;;;;;;;;;8288592;28;20585;-75
2023/10/22 09:41:49;;;;;;;7.43;1.95;;;;;;;;;;8282702;28;20136;-75
2023/10/22 09:45:49;;;;;;;9.57;1.80;;;;;;;;;;8270417;28;20107;-74
2023/10/22 09:49:50;;;;;;;8.85;1.92;;;;;;;;;;8265710;28;20025;-75
2023/10/22 09:53:51;;;;;;;7.22;1.52;;;;;;;;;;8285516;28;23893;-75
2023/10/22 09:57:52;;;;;;;7.32;1.70;;;;;;;;;;8275296;28;22580;-74
2023/10/22 10:01:53;;;;;;;7.72;1.60;;;;;;;;;;8260870;28;20041;-75
2023/10/22 10:05:54;;;;;;;4.88;1.30;;;;;;;;;;8270730;28;20029;-73
2023/10/22 10:09:55;;;;;;;6.93;1.40;;;;;;;;;;8276787;28;21272;-75
2023/10/22 10:13:56;;;;;;;10.65;2.33;;;;;;;;;;8275232;28;20429;-75
2023/10/22 10:17:56;;;;;;;6.53;1.77;;;;;;;;;;8276487;28;20080;-74
2023/10/22 10:21:57;;;;;;;10.57;1.98;;;;;;;;;;8278587;28;20344;-74
2023/10/22 10:26:17;;;;;;;8.52;1.90;;;;;;;;;;8277315;28;20626;-74
2023/10/22 10:30:18;;;;;;;8.00;1.92;;;;;;;;;;8275721;28;20028;-74
2023/10/22 10:34:25;;;;;;;6.25;1.70;;;;;;;;;;8276775;28;20711;-74
2023/10/22 10:38:28;;;;;;;12.52;2.15;;;;;;;;;;8276569;28;20031;-74
2023/10/22 10:42:28;;;;;;;10.57;2.00;;;;;;;;;;8279642;28;20017;-74
2023/10/22 10:46:28;;;;;;;8.20;1.67;;;;;;;;;;8277269;28;20043;-74
2023/10/22 10:50:28;;;;;;;7.50;1.90;;;;;;;;;;8277131;28;20049;-74
2023/10/22 10:54:29;;;;;;;6.68;1.73;;;;;;;;;;8261480;28;20152;-74
2023/10/22 10:58:29;;;;;;;11.45;2.03;;;;;;;;;;8279708;28;20029;-74
2023/10/22 11:02:29;;;;;;;9.75;2.40;;;;;;;;;;8274803;28;20040;-75
2023/10/22 11:06:29;;;;;;;10.80;2.10;;;;;;;;;;8276972;28;20021;-74
2023/10/22 11:10:30;;;;;;;10.45;2.13;;;;;;;;;;8273455;28;20048;-75
2023/10/22 11:14:31;;;;;;;12.43;2.00;;;;;;;;;;8275456;28;20433;-74
2023/10/22 11:18:31;;;;;;;9.50;2.05;;;;;;;;;;8273453;28;20029;-74
2023/10/22 11:22:32;;;;;;;6.50;1.40;;;;;;;;;;8273914;28;20144;-74
2023/10/22 11:26:32;;;;;;;9.63;2.17;;;;;;;;;;8263622;28;20030;-74
2023/10/22 11:30:33;;;;;;;8.57;1.63;;;;;;;;;;8275868;28;20025;-74
2023/10/22 11:34:33;;;;;;;8.82;1.98;;;;;;;;;;8276523;28;20029;-74
2023/10/22 11:38:40;;;;;;;9.33;1.63;;;;;;;;;;8279004;28;20025;-73
2023/10/22 11:42:40;;;;;;;10.70;2.10;;;;;;;;;;8278112;28;20287;-74
2023/10/22 11:46:41;;;;;;;6.13;1.70;;;;;;;;;;8276531;28;20087;-74
2023/10/22 11:50:48;;;;;;;5.63;1.95;;;;;;;;;;8276194;28;20025;-74
2023/10/22 11:54:49;;;;;;;5.28;1.58;;;;;;;;;;8263016;28;20025;-73
2023/10/22 11:58:52;;;;;;;7.25;1.73;;;;;;;;;;8274842;28;20044;-73
2023/10/22 12:02:53;;;;;;;7.53;1.40;;;;;;;;;;8280000;28;22270;-74
2023/10/22 12:06:53;;;;;;;5.32;1.80;;;;;;;;;;8281561;28;21193;-73
2023/10/22 12:10:53;;;;;;;6.28;1.75;;;;;;;;;;8281538;28;21445;-73
2023/10/22 12:14:53;;;;;;;5.57;1.50;;;;;;;;;;8285542;28;20884;-74
2023/10/22 12:18:53;;;;;;;3.78;1.30;;;;;;;;;;8282821;28;20037;-73
2023/10/22 12:22:54;;;;;;;4.00;1.38;;;;;;;;;;8273623;28;20025;-73
2023/10/22 12:26:54;;;;;;;5.27;1.60;;;;;;;;;;8282209;28;20029;-73
2023/10/22 12:30:55;;;;;;;3.88;1.60;;;;;;;;;;8281468;28;22568;-74
2023/10/22 12:34:55;;;;;;;6.90;1.75;;;;;;;;;;8282186;28;20036;-73
2023/10/22 12:38:55;;;;;;;4.07;1.20;;;;;;;;;;8282081;28;20095;-73
2023/10/22 12:42:55;;;;;;;3.77;1.20;;;;;;;;;;8283073;28;20698;-73
2023/10/22 12:46:57;;;;;;;8.40;1.35;;;;;;;;;;8282357;28;20863;-73
2023/10/22 12:50:57;;;;;;;4.50;1.50;;;;;;;;;;8282922;28;20039;-73
2023/10/22 12:54:57;;;;;;;5.32;1.60;;;;;;;;;;8282504;28;21022;-74
2023/10/22 12:58:57;;;;;;;6.00;1.60;;;;;;;;;;8284155;28;20387;-74
2023/10/22 13:02:57;;;;;;;7.75;1.88;;;;;;;;;;8281308;28;21044;-73
2023/10/22 13:06:58;;;;;;;4.72;1.30;;;;;;;;;;8279535;28;20029;-73
2023/10/22 13:10:58;;;;;;;4.03;1.30;;;;;;;;;;8281259;28;20068;-73
2023/10/22 13:14:59;;;;;;;4.00;1.30;;;;;;;;;;8281862;28;20279;-73
2023/10/22 13:18:59;;;;;;;3.93;1.10;;;;;;;;;;8279775;28;20052;-73
2023/10/22 13:22:59;;;;;;;3.93;1.40;;;;;;;;;;8279445;28;20093;-73
2023/10/22 13:27:00;;;;;;;6.80;1.57;;;;;;;;;;8280475;28;20283;-73
2023/10/22 13:31:00;;;;;;;6.13;1.30;;;;;;;;;;8281646;28;20120;-73
2023/10/22 13:35:00;;;;;;;5.20;1.70;;;;;;;;;;8280673;28;20028;-73
2023/10/22 13:39:00;;;;;;;8.38;1.40;;;;;;;;;;8282907;28;20139;-73
2023/10/22 13:43:01;;;;;;;5.03;1.30;;;;;;;;;;8264533;28;20036;-73
2023/10/22 13:47:01;;;;;;;5.03;1.30;;;;;;;;;;8280362;28;20038;-73
2023/10/22 13:51:05;;;;;;;5.50;1.30;;;;;;;;;;8266275;28;20032;-73
2023/10/22 13:55:05;;;;;;;6.93;1.50;;;;;;;;;;8279170;28;20271;-73
2023/10/22 13:59:06;;;;;;;4.07;1.53;;;;;;;;;;8279743;28;20036;-73
2023/10/22 14:03:06;;;;;;;5.07;1.35;;;;;;;;;;8279842;28;20649;-72
2023/10/22 14:07:06;;;;;;;5.68;1.20;;;;;;;;;;8280553;28;20057;-73
2023/10/22 14:11:06;;;;;;;6.60;1.50;;;;;;;;;;8279504;28;20028;-72
2023/10/22 14:15:07;;;;;;;6.33;1.20;;;;;;;;;;8279694;28;20021;-73
2023/10/22 14:19:07;;;;;;;6.05;1.27;;;;;;;;;;8278127;28;20702;-72
2023/10/22 14:23:08;;;;;;;5.40;1.70;;;;;;;;;;8282642;28;20058;-73
2023/10/22 14:27:10;;;;;;;7.97;1.87;;;;;;;;;;8282728;28;20279;-73
2023/10/22 14:31:10;;;;;;;4.80;1.50;;;;;;;;;;8278956;28;21175;-73
2023/10/22 14:35:11;;;;;;;4.78;1.38;;;;;;;;;;8279854;28;20704;-73
2023/10/22 14:39:11;;;;;;;5.50;1.60;;;;;;;;;;8268567;28;20092;-73
2023/10/22 14:43:11;;;;;;;5.85;1.65;;;;;;;;;;8279654;28;20494;-72
2023/10/22 14:47:12;;;;;;;6.10;1.40;;;;;;;;;;8280842;28;20030;-73
2023/10/22 14:51:13;;;;;;;3.97;1.42;;;;;;;;;;8264209;28;20032;-73
2023/10/22 14:55:13;;;;;;;6.30;1.23;;;;;;;;;;8265067;28;20027;-74
2023/10/22 14:59:14;;;;;;;3.30;1.10;;;;;;;;;;8278793;28;20025;-74
2023/10/22 15:03:14;;;;;;;7.38;1.48;;;;;;;;;;8277912;28;20044;-74
2023/10/22 15:07:14;;;;;;;2.25;1.05;;;;;;;;;;8276748;28;20025;-74
2023/10/22 15:11:19;;;;;;;3.78;1.13;;;;;;;;;;8277371;28;20029;-74
2023/10/22 15:15:19;;;;;;;4.20;1.42;;;;;;;;;;8269338;28;20798;-75
2023/10/22 15:19:21;;;;;;;4.90;1.23;;;;;;;;;;8277711;28;20117;-74
2023/10/22 15:23:21;;;;;;;4.45;1.40;;;;;;;;;;8275223;28;20582;-73
2023/10/22 15:27:22;;;;;;;4.13;1.30;;;;;;;;;;8273535;28;20110;-73
2023/10/22 15:31:22;;;;;;;3.78;1.00;;;;;;;;;;8277765;28;20357;-73
2023/10/22 15:35:29;;;;;;;7.53;1.60;;;;;;;;;;8275176;28;20945;-73
2023/10/22 15:39:30;;;;;;;2.95;0.80;;;;;;;;;;8267820;28;20345;-73
2023/10/22 15:43:30;;;;;;;2.72;0.90;;;;;;;;;;8279255;28;20158;-75
2023/10/22 15:47:31;;;;;;;3.65;1.10;;;;;;;;;;8276570;28;20029;-74
2023/10/22 15:51:32;;;;;;;2.58;1.15;;;;;;;;;;8277881;28;20876;-73
2023/10/22 15:55:32;;;;;;;4.32;1.10;;;;;;;;;;8277639;28;20449;-74
2023/10/22 15:59:33;;;;;;;2.50;1.13;;;;;;;;;;8279068;28;20033;-73
2023/10/22 16:03:34;;;;;;;5.35;1.42;;;;;;;;;;8277826;28;20029;-74
2023/10/22 16:07:34;;;;;;;2.08;1.10;;;;;;;;;;8277398;28;20072;-73
2023/10/22 16:11:35;;;;;;;3.92;1.05;;;;;;;;;;8277495;28;20533;-73
2023/10/22 16:15:35;;;;;;;5.03;1.00;;;;;;;;;;8275757;28;20119;-74
2023/10/22 16:19:36;;;;;;;3.42;1.05;;;;;;;;;;8275778;28;20096;-72
2023/10/22 16:23:36;;;;;;;4.28;1.30;;;;;;;;;;8276664;28;20021;-73
2023/10/22 16:27:36;;;;;;;5.15;1.30;;;;;;;;;;8261043;28;20029;-73
2023/10/22 16:31:37;;;;;;;4.03;1.03;;;;;;;;;;8271000;28;20033;-74
2023/10/22 16:35:38;;;;;;;5.63;1.60;;;;;;;;;;8276316;28;20032;-71
2023/10/22 16:39:38;;;;;;;3.90;1.08;;;;;;;;;;8271813;28;20031;-75
2023/10/22 16:43:39;;;;;;;2.75;1.00;;;;;;;;;;8273254;28;20025;-74
2023/10/22 16:47:39;;;;;;;2.17;0.95;;;;;;;;;;8276622;28;20034;-74
2023/10/22 16:51:39;;;;;;;3.35;1.10;;;;;;;;;;8276584;28;20679;-75
2023/10/22 16:55:40;;;;;;;2.70;1.07;;;;;;;;;;8280674;28;20112;-74
2023/10/22 16:59:41;;;;;;;3.53;1.17;;;;;;;;;;8269368;28;20025;-75
2023/10/22 17:03:41;;;;;;;5.20;1.00;;;;;;;;;;8263531;28;20389;-73
2023/10/22 17:07:41;;;;;;;3.63;0.95;;;;;;;;;;8270829;28;20024;-73
2023/10/22 17:11:41;;;;;;;1.75;0.85;;;;;;;;;;8278512;28;20033;-74
2023/10/22 17:15:42;;;;;;;4.53;1.48;;;;;;;;;;8277805;28;20033;-73
2023/10/22 17:19:42;;;;;;;5.07;1.35;;;;;;;;;;8273555;28;21333;-71
2023/10/22 17:23:43;;;;;;;4.18;1.25;;;;;;;;;;8273195;28;20045;-71
2023/10/22 17:27:44;;;;;;;3.22;1.20;;;;;;;;;;8275321;28;20114;-71
2023/10/22 17:31:44;;;;;;;2.58;1.02;;;;;;;;;;8255397;28;20340;-73
2023/10/22 17:35:53;;;;;;;2.92;1.00;;;;;;;;;;8253146;28;20029;-72
2023/10/22 17:39:55;;;;;;;4.20;1.13;;;;;;;;;;8272171;28;21746;-71
2023/10/22 17:43:55;;;;;;;4.22;1.02;;;;;;;;;;8258345;28;20032;-72
2023/10/22 17:47:55;;;;;;;3.67;1.40;;;;;;;;;;8274524;28;20036;-72
2023/10/22 17:51:56;;;;;;;3.80;1.00;;;;;;;;;;8270171;28;20033;-71
2023/10/22 17:56:03;;;;;;;2.90;0.90;;;;;;;;;;8276354;28;20148;-72
2023/10/22 18:00:03;;;;;;;3.47;0.90;;;;;;;;;;8270456;28;20287;-71
2023/10/22 18:04:04;;;;;;;4.20;1.13;;;;;;;;;;8274280;28;20032;-72
2023/10/22 18:08:04;;;;;;;2.73;1.07;;;;;;;;;;8270717;28;20078;-72
2023/10/22 18:12:04;;;;;;;4.70;1.10;;;;;;;;;;8270803;28;20033;-72
2023/10/22 18:16:05;;;;;;;5.97;1.30;;;;;;;;;;8276284;28;20333;-71
2023/10/22 18:20:06;;;;;;;4.68;1.27;;;;;;;;;;8272913;28;20402;-71
2023/10/22 18:24:07;;;;;;;3.53;1.10;;;;;;;;;;8259944;28;20164;-72
2023/10/22 18:28:08;;;;;;;6.22;1.30;;;;;;;;;;8273038;28;20037;-72
2023/10/22 18:32:08;;;;;;;2.72;1.80;;;;;;;;;;8256708;28;20044;-71
2023/10/22 18:36:09;;;;;;;2.80;1.30;;;;;;;;;;8271252;28;20056;-72
2023/10/22 18:40:09;;;;;;;5.03;1.40;;;;;;;;;;8273976;28;20036;-72
2023/10/22 18:44:09;;;;;;;4.32;0.98;;;;;;;;;;8272555;28;20156;-72
2023/10/22 18:48:12;;;;;;;4.00;1.40;;;;;;;;;;8270379;28;20695;-71
2023/10/22 18:52:13;;;;;;;2.57;1.00;;;;;;;;;;8255376;28;20044;-72
2023/10/22 18:56:13;;;;;;;2.63;1.10;;;;;;;;;;8293744;28;20279;-72
2023/10/22 19:00:15;;;;;;;7.75;1.20;;;;;;;;;;8272893;28;20116;-72
2023/10/22 19:04:15;;;;;;;3.05;1.08;;;;;;;;;;8269951;28;20025;-72
2023/10/22 19:08:16;;;;;;;2.85;0.90;;;;;;;;;;8271774;28;20017;-72
2023/10/22 19:12:16;;;;;;;3.55;1.00;;;;;;;;;;8266689;28;20052;-72
2023/10/22 19:16:22;;;;;;;1.75;0.80;;;;;;;;;;8267309;28;20041;-71
2023/10/22 19:20:22;;;;;;;4.13;1.00;;;;;;;;;;8273057;28;20032;-72
2023/10/22 19:24:22;;;;;;;5.78;1.10;;;;;;;;;;8267557;28;20025;-72
2023/10/22 19:28:23;;;;;;;2.28;0.90;;;;;;;;;;8271473;28;20021;-72
2023/10/22 19:32:23;;;;;;;1.38;0.80;;;;;;;;;;8270625;28;20041;-72
2023/10/22 19:36:24;;;;;;;3.83;1.00;;;;;;;;;;8273052;28;20976;-73
2023/10/22 19:40:25;;;;;;;2.85;1.10;;;;;;;;;;8272824;28;20388;-72
2023/10/22 19:44:25;;;;;;;2.80;1.10;;;;;;;;;;8273589;28;20034;-72
2023/10/22 19:48:25;;;;;;;4.82;1.15;;;;;;;;;;8269178;28;20068;-72
2023/10/22 19:52:25;;;;;;;2.43;0.77;;;;;;;;;;8272761;28;20020;-72
2023/10/22 19:56:26;;;;;;;3.05;1.05;;;;;;;;;;8270459;28;20112;-73
2023/10/22 20:00:26;;;;;;;5.87;1.10;;;;;;;;;;8265304;28;20064;-72
2023/10/22 20:04:28;;;;;;;3.28;1.10;;;;;;;;;;8261017;28;20263;-73
2023/10/22 20:08:28;;;;;;;3.33;1.15;;;;;;;;;;8272278;28;20025;-72
2023/10/22 20:12:28;;;;;;;4.68;1.05;;;;;;;;;;8270980;28;20678;-72
2023/10/22 20:16:28;;;;;;;3.00;0.90;;;;;;;;;;8272204;28;20057;-72
2023/10/22 20:20:28;;;;;;;2.00;0.75;;;;;;;;;;8269580;28;20025;-73
2023/10/22 20:24:30;;;;;;;2.95;1.20;;;;;;;;;;8277173;28;21054;-72
2023/10/22 20:28:30;;;;;;;3.20;1.10;;;;;;;;;;8276692;28;20018;-72
2023/10/22 20:32:31;;;;;;;3.97;1.42;;;;;;;;;;8275494;28;20040;-73
2023/10/22 20:36:31;;;;;;;3.08;1.40;;;;;;;;;;8276612;28;20183;-72
2023/10/22 20:40:31;;;;;;;2.22;1.42;;;;;;;;;;8278593;28;21392;-72
2023/10/22 20:44:31;;;;;;;5.10;1.40;;;;;;;;;;8264152;28;20407;-72
2023/10/22 20:48:32;;;;;;;4.30;1.52;;;;;;;;;;8276315;28;20040;-71
2023/10/22 20:52:32;;;;;;;6.15;1.27;;;;;;;;;;8275128;28;20099;-73
2023/10/22 20:56:33;;;;;;;5.32;1.52;;;;;;;;;;8257465;28;20025;-72
2023/10/22 21:00:33;;;;;;;8.10;1.45;;;;;;;;;;8275598;28;20029;-72
2023/10/22 21:04:35;;;;;;;6.07;1.40;;;;;;;;;;8260485;28;20021;-73
2023/10/22 21:08:35;;;;;;;3.35;1.20;;;;;;;;;;8276065;28;20025;-73
2023/10/22 21:12:35;;;;;;;2.40;0.98;;;;;;;;;;8276632;28;20475;-73
2023/10/22 21:16:35;;;;;;;4.85;1.27;;;;;;;;;;8286619;28;20060;-72
2023/10/22 21:20:36;;;;;;;5.85;1.52;;;;;;;;;;8287612;28;20071;-73
2023/10/22 21:24:36;;;;;;;5.23;1.43;;;;;;;;;;8275250;28;20083;-73
2023/10/22 21:28:36;;;;;;;3.97;1.40;;;;;;;;;;8289297;28;20275;-73
2023/10/22 21:32:36;;;;;;;3.33;1.40;;;;;;;;;;8289709;28;20041;-73
2023/10/22 21:36:36;;;;;;;6.65;1.48;;;;;;;;;;8290296;28;20094;-73
2023/10/22 21:40:37;;;;;;;6.47;1.52;;;;;;;;;;8301633;28;20021;-74
2023/10/22 21:44:37;;;;;;;6.18;1.50;;;;;;;;;;8295396;28;20903;-73
2023/10/22 21:48:38;;;;;;;6.13;1.20;;;;;;;;;;8290320;28;20030;-73
2023/10/22 21:52:38;;;;;;;4.95;1.77;;;;;;;;;;8291946;28;20449;-74
2023/10/22 21:56:38;;;;;;;3.13;1.20;;;;;;;;;;8292606;28;20021;-74
2023/10/22 22:00:38;;;;;;;2.60;1.00;;;;;;;;;;8271761;28;20418;-73
2023/10/22 22:04:38;;;;;;;3.20;1.25;;;;;;;;;;8276034;28;20506;-72
2023/10/22 22:08:38;;;;;;;3.00;0.95;;;;;;;;;;8282352;28;20017;-73
2023/10/22 22:12:39;;;;;;;3.65;0.90;;;;;;;;;;8288202;28;20506;-73
2023/10/22 22:16:39;;;;;;;2.38;1.05;;;;;;;;;;8292098;28;20095;-74
2023/10/22 22:20:39;;;;;;;6.75;1.20;;;;;;;;;;8273603;28;20024;-73
2023/10/22 22:24:39;;;;;;;2.93;1.00;;;;;;;;;;8276285;28;20081;-74
2023/10/22 22:28:40;;;;;;;1.65;1.00;;;;;;;;;;8269267;28;20771;-74
2023/10/22 22:32:40;;;;;;;3.47;1.15;;;;;;;;;;8276892;28;20034;-74
2023/10/22 22:36:40;;;;;;;3.17;1.17;;;;;;;;;;8277702;28;20018;-72
2023/10/22 22:40:41;;;;;;;3.53;1.30;;;;;;;;;;8275155;28;20401;-73
2023/10/22 22:44:43;;;;;;;2.78;1.10;;;;;;;;;;8275955;28;20091;-73
2023/10/22 22:48:43;;;;;;;4.15;1.10;;;;;;;;;;8276972;28;20083;-74
2023/10/22 22:52:43;;;;;;;4.18;0.80;;;;;;;;;;8276643;28;20126;-74
2023/10/22 22:56:43;;;;;;;3.15;0.90;;;;;;;;;;8275782;28;20029;-73
2023/10/22 23:00:44;;;;;;;2.90;0.90;;;;;;;;;;8274385;28;20124;-74
2023/10/22 23:04:44;;;;;;;2.50;0.90;;;;;;;;;;8278732;28;20820;-73
2023/10/22 23:08:44;;;;;;;3.17;1.23;;;;;;;;;;8273033;28;20280;-73
2023/10/22 23:12:44;;;;;;;2.53;1.05;;;;;;;;;;8277482;28;20765;-73
2023/10/22 23:16:45;;;;;;;5.55;1.45;;;;;;;;;;8276188;28;20677;-73
2023/10/22 23:20:45;;;;;;;5.75;1.25;;;;;;;;;;8278403;28;20057;-73
2023/10/22 23:24:45;;;;;;;4.17;1.20;;;;;;;;;;8280002;28;20029;-72
2023/10/22 23:28:45;;;;;;;3.05;1.08;;;;;;;;;;8281210;28;20376;-74
2023/10/22 23:32:47;;;;;;;3.47;1.27;;;;;;;;;;8278669;28;20076;-74
2023/10/22 23:36:48;;;;;;;5.18;1.35;;;;;;;;;;8280244;28;20021;-73
2023/10/22 23:40:48;;;;;;;5.97;1.45;;;;;;;;;;8281409;28;20013;-73
2023/10/22 23:44:48;;;;;;;3.35;1.17;;;;;;;;;;8282828;28;20044;-74
2023/10/22 23:48:48;;;;;;;5.05;1.17;;;;;;;;;;8281209;28;20084;-74
2023/10/22 23:52:49;;;;;;;5.88;1.25;;;;;;;;;;8277207;28;20036;-74
2023/10/22 23:56:49;;;;;;;5.85;1.40;;;;;;;;;;8275260;28;20131;-74
